PASIPAKT

Guest
Details From PASI - SITKA ROCKY GUTIERREZ
To PAKT - KETCHIKAN INTL
Flight Number -
Tags decoded
Created
Modified
Stats Distance 159 nm / 294 km
Max Altitude 0 ft / 0 m
Waypoints 2
Social Downloads 0
Likes 0
Share VATSIM

Download

Looking for another format? Having issues loading an existing format? Contact us
Advertisement - Login to hide

Notes

Requested: PASI PAKT

Route

PASI PAKT

ID Type Via Altitude Latitude Longitude Leg Dist Tot Dist Heading (true) Name
O PASI APT - 0 ft / 0 m 57.04713˚ -135.36160˚ - 0 nm - SITKA ROCKY GUTIERREZ
O PAKT APT - 0 ft / 0 m 55.35554˚ -131.71374˚ 158 nm 158 nm 128° / 131° KETCHIKAN INTL

Altitude Profile

Advertisement - Login to hide

PASI

Details ICAO PASI (SIT)
Name SITKA ROCKY GUTIERREZ
Region USA (Alaska)
Timezone America/Juneau (UTC-9.0)
Stats Elevation 21 ft / 6 m (AMSL)
Location 57.047128° -135.361597°
Runways 1
Magnetic Variation 18.750° E

METAR

PASI 160053Z 10010KT 10SM BKN028 04/02 A3001

Decode

TAF

PASI 152342Z 1600/1624 10008KT P6SM BKN035 OVC050 FM160600 12015G25KT P6SM -RA BKN030 OVC050 FM161000 12020G30KT 6SM -RA BR SCT015 OVC025 FM161500 14018G28KT 4SM RA BR BKN008 OVC015 FM162000 20012KT 6SM -RA SCT010 OVC020

Decode

Departure Runways

ID Width Length Bearing (true) Bearing (mag) Surface Threshold Offset Overrun Length
11 150 ft / 46 m 6,485 ft / 1,977 m 135.57° 116.82° Asphalt 0 ft / 0 m 0 ft / 0 m
29 150 ft / 46 m 6,485 ft / 1,977 m 315.59° 296.84° Asphalt 0 ft / 0 m 0 ft / 0 m

PAKT

Details ICAO PAKT (KTN)
Name KETCHIKAN INTL
Region USA (Alaska)
Timezone Unknown (UTC+0.0)
Stats Elevation 88 ft / 27 m (AMSL)
Location 55.355545° -131.713737°
Runways 1
Magnetic Variation 18.533° E

METAR

PAKT 160053Z 15004KT 10SM OVC033 05/03 A3013

Decode

TAF

PAKT 152342Z 1600/1624 14008KT P6SM BKN035 OVC050 FM160800 15013G23KT 6SM -RA BR BKN030 OVC050 FM161500 14018G28KT 4SM RA BR SCT008 OVC015 PROB30 1618/1624 2SM RA BR BKN008 OVC015 AMD LTD TO CLD VIS AND WIND 1606/1615

Decode

Destination Runways

ID Width Length Bearing (true) Bearing (mag) Surface Threshold Offset Overrun Length
11 150 ft / 46 m 7,485 ft / 2,281 m 135.66° 117.13° Asphalt 0 ft / 0 m 200 ft / 61 m
29 150 ft / 46 m 7,485 ft / 2,281 m 315.68° 297.15° Asphalt 0 ft / 0 m 100 ft / 30 m

Approach Navaids

Runway Type Ident Frequency Range Bearing (true) Bearing (mag) Slope Elevation
11 Localiser IECH 109.30 MHz 18 nm / 33 km 135.69° 117.16° - 66 ft / 20 m (AMSL)
11 Glidescope IECH 109.30 MHz 10 nm / 19 km 135.67° 117.14° 3.61° 76 ft / 23 m (AMSL)
11 DME IECH 109.30 MHz 18 nm / 33 km - - - 98 ft / 30 m (AMSL)

Popular Alternatives